sensor_id;sensor_type;location;lat;lon;timestamp;temperature;humidity
55026;DHT22;40925;45.666;18.994;2023-09-12T00:00:23;512.90;2380.80
55026;DHT22;40925;45.666;18.994;2023-09-12T00:02:52;512.60;2380.80
55026;DHT22;40925;45.666;18.994;2023-09-12T00:05:17;512.50;2380.80
55026;DHT22;40925;45.666;18.994;2023-09-12T00:07:45;512.50;2380.80
55026;DHT22;40925;45.666;18.994;2023-09-12T00:10:10;512.50;2380.80
55026;DHT22;40925;45.666;18.994;2023-09-12T00:12:36;512.40;2380.80
55026;DHT22;40925;45.666;18.994;2023-09-12T00:15:02;512.40;2380.80
55026;DHT22;40925;45.666;18.994;2023-09-12T00:17:29;512.40;2380.80
55026;DHT22;40925;45.666;18.994;2023-09-12T00:19:56;512.40;2380.80
55026;DHT22;40925;45.666;18.994;2023-09-12T00:22:21;512.40;2380.80
55026;DHT22;40925;45.666;18.994;2023-09-12T00:24:47;512.30;2380.80
55026;DHT22;40925;45.666;18.994;2023-09-12T00:27:13;512.30;2380.80
55026;DHT22;40925;45.666;18.994;2023-09-12T00:29:39;512.20;2380.80
55026;DHT22;40925;45.666;18.994;2023-09-12T00:32:04;512.10;2380.80
55026;DHT22;40925;45.666;18.994;2023-09-12T00:34:30;512.10;2380.80
55026;DHT22;40925;45.666;18.994;2023-09-12T00:36:56;512.00;2380.80
55026;DHT22;40925;45.666;18.994;2023-09-12T00:39:22;487.30;2380.80
55026;DHT22;40925;45.666;18.994;2023-09-12T00:41:47;487.30;2380.80
55026;DHT22;40925;45.666;18.994;2023-09-12T00:44:14;487.20;2380.80
55026;DHT22;40925;45.666;18.994;2023-09-12T00:46:40;487.20;2380.80
55026;DHT22;40925;45.666;18.994;2023-09-12T00:49:08;487.10;2380.80
55026;DHT22;40925;45.666;18.994;2023-09-12T00:51:34;487.20;2380.80
55026;DHT22;40925;45.666;18.994;2023-09-12T00:54:01;487.20;2380.80
55026;DHT22;40925;45.666;18.994;2023-09-12T00:56:27;487.20;2380.80
55026;DHT22;40925;45.666;18.994;2023-09-12T00:58:53;487.10;2380.80
55026;DHT22;40925;45.666;18.994;2023-09-12T01:01:20;487.10;2380.80
55026;DHT22;40925;45.666;18.994;2023-09-12T01:03:46;487.10;2380.80
55026;DHT22;40925;45.666;18.994;2023-09-12T01:06:12;487.00;2380.80
55026;DHT22;40925;45.666;18.994;2023-09-12T01:08:39;487.00;2380.80
55026;DHT22;40925;45.666;18.994;2023-09-12T01:11:05;487.00;2380.80
55026;DHT22;40925;45.666;18.994;2023-09-12T01:13:31;486.90;2380.80
55026;DHT22;40925;45.666;18.994;2023-09-12T01:15:57;486.90;2380.80
55026;DHT22;40925;45.666;18.994;2023-09-12T01:18:24;486.80;2380.80
55026;DHT22;40925;45.666;18.994;2023-09-12T01:21:37;486.80;2380.80
55026;DHT22;40925;45.666;18.994;2023-09-12T01:27:28;486.70;2380.80
55026;DHT22;40925;45.666;18.994;2023-09-12T01:32:29;486.80;2380.80
55026;DHT22;40925;45.666;18.994;2023-09-12T01:34:55;486.80;2380.80
55026;DHT22;40925;45.666;18.994;2023-09-12T01:37:20;486.60;2380.80
55026;DHT22;40925;45.666;18.994;2023-09-12T01:39:46;486.50;2380.80
55026;DHT22;40925;45.666;18.994;2023-09-12T01:42:16;486.40;2380.80
55026;DHT22;40925;45.666;18.994;2023-09-12T01:44:46;486.70;2380.80
55026;DHT22;40925;45.666;18.994;2023-09-12T01:47:13;486.60;2380.80
55026;DHT22;40925;45.666;18.994;2023-09-12T01:49:45;486.40;2380.80
55026;DHT22;40925;45.666;18.994;2023-09-12T01:52:13;486.40;2380.80
55026;DHT22;40925;45.666;18.994;2023-09-12T01:54:41;461.70;2380.80
55026;DHT22;40925;45.666;18.994;2023-09-12T01:57:08;461.70;2380.80
55026;DHT22;40925;45.666;18.994;2023-09-12T02:19:05;461.70;2380.80
55026;DHT22;40925;45.666;18.994;2023-09-12T02:21:34;461.60;2380.80
55026;DHT22;40925;45.666;18.994;2023-09-12T02:24:00;461.40;2380.80
55026;DHT22;40925;45.666;18.994;2023-09-12T02:26:26;461.40;2380.80
55026;DHT22;40925;45.666;18.994;2023-09-12T02:28:51;461.40;2380.80
55026;DHT22;40925;45.666;18.994;2023-09-12T02:31:19;461.40;2380.80
55026;DHT22;40925;45.666;18.994;2023-09-12T02:33:45;461.40;2380.80
55026;DHT22;40925;45.666;18.994;2023-09-12T02:36:11;461.30;2380.80
55026;DHT22;40925;45.666;18.994;2023-09-12T02:38:36;461.30;2380.80
55026;DHT22;40925;45.666;18.994;2023-09-12T02:41:02;461.30;2380.80
55026;DHT22;40925;45.666;18.994;2023-09-12T02:43:28;461.30;2380.80
55026;DHT22;40925;45.666;18.994;2023-09-12T02:45:54;461.30;2380.80
55026;DHT22;40925;45.666;18.994;2023-09-12T02:48:20;461.30;2380.80
55026;DHT22;40925;45.666;18.994;2023-09-12T02:50:45;461.20;2380.80
55026;DHT22;40925;45.666;18.994;2023-09-12T02:53:11;461.20;2380.80
55026;DHT22;40925;45.666;18.994;2023-09-12T02:55:41;461.10;2380.80
55026;DHT22;40925;45.666;18.994;2023-09-12T03:47:03;461.00;2380.80
55026;DHT22;40925;45.666;18.994;2023-09-12T05:15:10;461.40;2380.80
55026;DHT22;40925;45.666;18.994;2023-09-12T05:17:36;461.30;2380.80
55026;DHT22;40925;45.666;18.994;2023-09-12T05:20:05;461.30;2380.80
55026;DHT22;40925;45.666;18.994;2023-09-12T05:22:31;461.40;2380.80
55026;DHT22;40925;45.666;18.994;2023-09-12T05:24:56;461.40;2380.80
55026;DHT22;40925;45.666;18.994;2023-09-12T05:27:22;461.50;2380.80
55026;DHT22;40925;45.666;18.994;2023-09-12T05:29:48;461.60;2380.80
55026;DHT22;40925;45.666;18.994;2023-09-12T05:32:13;486.40;2380.80
55026;DHT22;40925;45.666;18.994;2023-09-12T05:37:08;486.90;2380.80
55026;DHT22;40925;45.666;18.994;2023-09-12T05:39:34;487.10;2380.80
55026;DHT22;40925;45.666;18.994;2023-09-12T05:41:59;487.10;2380.80
55026;DHT22;40925;45.666;18.994;2023-09-12T05:44:25;512.10;2380.80
55026;DHT22;40925;45.666;18.994;2023-09-12T05:46:52;512.20;2380.80
55026;DHT22;40925;45.666;18.994;2023-09-12T05:51:43;512.80;2380.80
55026;DHT22;40925;45.666;18.994;2023-09-12T05:54:10;512.50;2380.80
55026;DHT22;40925;45.666;18.994;2023-09-12T05:56:36;512.60;2380.80
55026;DHT22;40925;45.666;18.994;2023-09-12T05:59:01;537.60;2406.40
55026;DHT22;40925;45.666;18.994;2023-09-12T06:01:28;537.60;2406.40
55026;DHT22;40925;45.666;18.994;2023-09-12T06:03:53;537.90;2406.40
55026;DHT22;40925;45.666;18.994;2023-09-12T06:06:19;538.00;2406.40
55026;DHT22;40925;45.666;18.994;2023-09-12T06:08:45;538.20;2406.40
55026;DHT22;40925;45.666;18.994;2023-09-12T06:11:13;538.10;2406.40
55026;DHT22;40925;45.666;18.994;2023-09-12T06:13:40;538.50;2406.40
55026;DHT22;40925;45.666;18.994;2023-09-12T06:16:06;564.00;2432.00
55026;DHT22;40925;45.666;18.994;2023-09-12T06:18:33;640.60;2432.00
55026;DHT22;40925;45.666;18.994;2023-09-12T06:30:56;1024.40;1075.20
55026;DHT22;40925;45.666;18.994;2023-09-12T06:33:23;1049.60;1075.20
55026;DHT22;40925;45.666;18.994;2023-09-12T06:35:49;1050.50;998.40
55026;DHT22;40925;45.666;18.994;2023-09-12T06:38:16;1075.80;947.20
55026;DHT22;40925;45.666;18.994;2023-09-12T06:40:45;1100.90;972.80
55026;DHT22;40925;45.666;18.994;2023-09-12T06:43:13;1100.90;972.80
55026;DHT22;40925;45.666;18.994;2023-09-12T06:45:42;1101.10;972.80
55026;DHT22;40925;45.666;18.994;2023-09-12T06:48:08;1126.80;921.60
55026;DHT22;40925;45.666;18.994;2023-09-12T06:50:35;1152.30;896.00
55026;DHT22;40925;45.666;18.994;2023-09-12T06:53:04;1177.90;844.80
55026;DHT22;40925;45.666;18.994;2023-09-12T06:55:32;1178.20;793.60
55026;DHT22;40925;45.666;18.994;2023-09-12T06:57:59;1203.50;819.20
55026;DHT22;40925;45.666;18.994;2023-09-12T07:00:25;1178.40;768.00
55026;DHT22;40925;45.666;18.994;2023-09-12T07:02:52;1178.40;768.00
55026;DHT22;40925;45.666;18.994;2023-09-12T07:05:17;1177.70;793.60
55026;DHT22;40925;45.666;18.994;2023-09-12T07:07:43;1178.20;768.00
55026;DHT22;40925;45.666;18.994;2023-09-12T07:10:09;1177.60;793.60
55026;DHT22;40925;45.666;18.994;2023-09-12T07:12:35;1152.40;819.20
55026;DHT22;40925;45.666;18.994;2023-09-12T07:15:01;1126.70;844.80
55026;DHT22;40925;45.666;18.994;2023-09-12T07:17:28;1101.10;844.80
55026;DHT22;40925;45.666;18.994;2023-09-12T07:19:53;1050.50;896.00
55026;DHT22;40925;45.666;18.994;2023-09-12T07:22:22;998.40;947.20
55026;DHT22;40925;45.666;18.994;2023-09-12T07:24:48;947.90;972.80
55026;DHT22;40925;45.666;18.994;2023-09-12T07:27:14;922.30;1049.60
55026;DHT22;40925;45.666;18.994;2023-09-12T07:29:39;871.10;1100.80
55026;DHT22;40925;45.666;18.994;2023-09-12T07:32:05;819.50;1203.20
55026;DHT22;40925;45.666;18.994;2023-09-12T07:34:31;819.70;1228.80
55026;DHT22;40925;45.666;18.994;2023-09-12T07:36:56;794.50;1228.80
55026;DHT22;40925;45.666;18.994;2023-09-12T07:39:22;768.10;1280.00
55026;DHT22;40925;45.666;18.994;2023-09-12T07:41:50;768.40;1305.60
55026;DHT22;40925;45.666;18.994;2023-09-12T07:44:15;768.00;1331.20
55026;DHT22;40925;45.666;18.994;2023-09-12T07:46:43;743.20;1331.20
55026;DHT22;40925;45.666;18.994;2023-09-12T07:49:09;768.10;1356.80
55026;DHT22;40925;45.666;18.994;2023-09-12T07:51:35;743.20;1382.40
55026;DHT22;40925;45.666;18.994;2023-09-12T07:54:01;743.20;1382.40
55026;DHT22;40925;45.666;18.994;2023-09-12T07:56:27;743.30;1356.80
55026;DHT22;40925;45.666;18.994;2023-09-12T07:58:53;743.00;1382.40
55026;DHT22;40925;45.666;18.994;2023-09-12T08:01:18;768.30;1356.80
55026;DHT22;40925;45.666;18.994;2023-09-12T08:03:44;768.30;1356.80
55026;DHT22;40925;45.666;18.994;2023-09-12T08:06:10;793.70;1356.80
55026;DHT22;40925;45.666;18.994;2023-09-12T08:08:36;793.60;1305.60
55026;DHT22;40925;45.666;18.994;2023-09-12T08:11:01;768.50;1305.60
55026;DHT22;40925;45.666;18.994;2023-09-12T08:13:29;768.30;1331.20
55026;DHT22;40925;45.666;18.994;2023-09-12T08:15:56;768.30;1305.60
55026;DHT22;40925;45.666;18.994;2023-09-12T08:18:26;743.20;1331.20
55026;DHT22;40925;45.666;18.994;2023-09-12T08:20:52;768.10;1331.20
55026;DHT22;40925;45.666;18.994;2023-09-12T08:23:17;743.20;1305.60
55026;DHT22;40925;45.666;18.994;2023-09-12T08:25:43;768.40;1331.20
55026;DHT22;40925;45.666;18.994;2023-09-12T08:28:09;768.80;1305.60
55026;DHT22;40925;45.666;18.994;2023-09-12T08:30:34;768.40;1305.60
55026;DHT22;40925;45.666;18.994;2023-09-12T08:33:00;768.00;1331.20
55026;DHT22;40925;45.666;18.994;2023-09-12T08:35:28;768.40;1305.60
55026;DHT22;40925;45.666;18.994;2023-09-12T08:37:54;768.80;1305.60
55026;DHT22;40925;45.666;18.994;2023-09-12T08:40:21;793.60;1305.60
55026;DHT22;40925;45.666;18.994;2023-09-12T08:42:51;768.80;1280.00
55026;DHT22;40925;45.666;18.994;2023-09-12T08:45:18;768.70;1305.60
55026;DHT22;40925;45.666;18.994;2023-09-12T08:47:46;768.80;1280.00
55026;DHT22;40925;45.666;18.994;2023-09-12T08:50:14;768.80;1305.60
55026;DHT22;40925;45.666;18.994;2023-09-12T08:52:41;768.80;1280.00
55026;DHT22;40925;45.666;18.994;2023-09-12T08:55:10;768.80;1305.60
55026;DHT22;40925;45.666;18.994;2023-09-12T08:57:38;793.90;1280.00
55026;DHT22;40925;45.666;18.994;2023-09-12T09:00:05;794.20;1254.40
55026;DHT22;40925;45.666;18.994;2023-09-12T09:02:37;794.10;1280.00
55026;DHT22;40925;45.666;18.994;2023-09-12T09:05:08;793.80;1280.00
55026;DHT22;40925;45.666;18.994;2023-09-12T09:07:38;794.00;1280.00
55026;DHT22;40925;45.666;18.994;2023-09-12T09:10:09;819.20;1280.00
55026;DHT22;40925;45.666;18.994;2023-09-12T09:12:39;819.20;1280.00
55026;DHT22;40925;45.666;18.994;2023-09-12T09:15:25;794.40;1254.40
55026;DHT22;40925;45.666;18.994;2023-09-12T09:17:56;819.20;1228.80
55026;DHT22;40925;45.666;18.994;2023-09-12T09:20:33;819.20;1228.80
55026;DHT22;40925;45.666;18.994;2023-09-12T09:23:05;794.20;1254.40
55026;DHT22;40925;45.666;18.994;2023-09-12T09:25:35;819.50;1254.40
55026;DHT22;40925;45.666;18.994;2023-09-12T09:28:05;819.50;1228.80
55026;DHT22;40925;45.666;18.994;2023-09-12T09:30:42;819.20;1228.80
55026;DHT22;40925;45.666;18.994;2023-09-12T09:33:09;819.80;1203.20
55026;DHT22;40925;45.666;18.994;2023-09-12T09:35:36;819.60;1228.80
55026;DHT22;40925;45.666;18.994;2023-09-12T09:38:04;794.40;1228.80
55026;DHT22;40925;45.666;18.994;2023-09-12T09:40:32;819.70;1228.80
55026;DHT22;40925;45.666;18.994;2023-09-12T09:43:02;820.00;1228.80
55026;DHT22;40925;45.666;18.994;2023-09-12T09:45:29;845.10;1228.80
55026;DHT22;40925;45.666;18.994;2023-09-12T09:48:05;845.10;1203.20
55026;DHT22;40925;45.666;18.994;2023-09-12T09:50:35;845.30;1203.20
55026;DHT22;40925;45.666;18.994;2023-09-12T09:53:05;845.30;1228.80
55026;DHT22;40925;45.666;18.994;2023-09-12T09:55:34;845.30;1228.80
55026;DHT22;40925;45.666;18.994;2023-09-12T09:58:00;844.80;1228.80
55026;DHT22;40925;45.666;18.994;2023-09-12T10:00:28;844.80;1228.80
55026;DHT22;40925;45.666;18.994;2023-09-12T10:02:55;819.70;1203.20
55026;DHT22;40925;45.666;18.994;2023-09-12T10:05:24;845.00;1203.20
55026;DHT22;40925;45.666;18.994;2023-09-12T10:07:53;820.00;1177.60
55026;DHT22;40925;45.666;18.994;2023-09-12T10:10:20;820.10;1177.60
55026;DHT22;40925;45.666;18.994;2023-09-12T10:12:56;845.00;1177.60
55026;DHT22;40925;45.666;18.994;2023-09-12T10:15:23;844.80;1177.60
55026;DHT22;40925;45.666;18.994;2023-09-12T10:18:07;844.90;1177.60
55026;DHT22;40925;45.666;18.994;2023-09-12T10:20:43;844.80;1152.00
55026;DHT22;40925;45.666;18.994;2023-09-12T10:23:27;819.70;1177.60
55026;DHT22;40925;45.666;18.994;2023-09-12T10:25:57;819.70;1177.60
55026;DHT22;40925;45.666;18.994;2023-09-12T10:28:25;819.70;1177.60
55026;DHT22;40925;45.666;18.994;2023-09-12T10:30:52;820.00;1177.60
55026;DHT22;40925;45.666;18.994;2023-09-12T10:33:19;845.20;1203.20
55026;DHT22;40925;45.666;18.994;2023-09-12T10:35:47;845.60;1152.00
55026;DHT22;40925;45.666;18.994;2023-09-12T10:38:16;845.10;1152.00
55026;DHT22;40925;45.666;18.994;2023-09-12T10:40:44;845.10;1177.60
55026;DHT22;40925;45.666;18.994;2023-09-12T10:43:13;845.00;1177.60
55026;DHT22;40925;45.666;18.994;2023-09-12T10:45:40;845.30;1177.60
55026;DHT22;40925;45.666;18.994;2023-09-12T10:48:08;845.60;1152.00
55026;DHT22;40925;45.666;18.994;2023-09-12T10:50:35;870.40;1126.40
55026;DHT22;40925;45.666;18.994;2023-09-12T10:53:14;845.60;1126.40
55026;DHT22;40925;45.666;18.994;2023-09-12T10:55:41;845.50;1126.40
55026;DHT22;40925;45.666;18.994;2023-09-12T10:58:09;845.60;1075.20
55026;DHT22;40925;45.666;18.994;2023-09-12T11:00:36;870.40;1100.80
55026;DHT22;40925;45.666;18.994;2023-09-12T11:05:54;896.00;1100.80
55026;DHT22;40925;45.666;18.994;2023-09-12T11:08:20;870.70;1075.20
55026;DHT22;40925;45.666;18.994;2023-09-12T11:11:19;870.90;1152.00
55026;DHT22;40925;45.666;18.994;2023-09-12T11:13:45;871.20;1152.00
55026;DHT22;40925;45.666;18.994;2023-09-12T11:19:18;871.20;1177.60
55026;DHT22;40925;45.666;18.994;2023-09-12T11:21:49;871.20;1177.60
55026;DHT22;40925;45.666;18.994;2023-09-12T11:32:09;896.70;1152.00
55026;DHT22;40925;45.666;18.994;2023-09-12T11:37:10;896.10;1152.00
55026;DHT22;40925;45.666;18.994;2023-09-12T11:39:48;871.30;1126.40
55026;DHT22;40925;45.666;18.994;2023-09-12T11:42:16;871.20;1152.00
55026;DHT22;40925;45.666;18.994;2023-09-12T11:44:41;896.30;1126.40
55026;DHT22;40925;45.666;18.994;2023-09-12T11:47:10;896.50;1152.00
55026;DHT22;40925;45.666;18.994;2023-09-12T11:49:39;896.50;1126.40
55026;DHT22;40925;45.666;18.994;2023-09-12T11:52:12;896.40;1126.40
55026;DHT22;40925;45.666;18.994;2023-09-12T12:12:14;921.70;1075.20
55026;DHT22;40925;45.666;18.994;2023-09-12T12:36:57;947.30;998.40
55026;DHT22;40925;45.666;18.994;2023-09-12T12:39:23;947.40;972.80
55026;DHT22;40925;45.666;18.994;2023-09-12T12:41:52;947.30;998.40
55026;DHT22;40925;45.666;18.994;2023-09-12T12:44:18;922.50;972.80
55026;DHT22;40925;45.666;18.994;2023-09-12T12:46:54;922.10;972.80
55026;DHT22;40925;45.666;18.994;2023-09-12T12:49:21;922.40;998.40
55026;DHT22;40925;45.666;18.994;2023-09-12T12:51:47;922.30;998.40
55026;DHT22;40925;45.666;18.994;2023-09-12T12:54:14;922.40;972.80
55026;DHT22;40925;45.666;18.994;2023-09-12T12:56:41;922.10;947.20
55026;DHT22;40925;45.666;18.994;2023-09-12T12:59:08;922.00;972.80
55026;DHT22;40925;45.666;18.994;2023-09-12T13:01:35;921.90;972.80
55026;DHT22;40925;45.666;18.994;2023-09-12T13:04:04;922.20;972.80
55026;DHT22;40925;45.666;18.994;2023-09-12T13:06:29;922.10;972.80
55026;DHT22;40925;45.666;18.994;2023-09-12T13:08:55;922.40;947.20
55026;DHT22;40925;45.666;18.994;2023-09-12T13:11:26;921.90;947.20
55026;DHT22;40925;45.666;18.994;2023-09-12T13:13:52;922.40;972.80
55026;DHT22;40925;45.666;18.994;2023-09-12T13:16:18;922.10;947.20
55026;DHT22;40925;45.666;18.994;2023-09-12T13:18:44;922.10;947.20
55026;DHT22;40925;45.666;18.994;2023-09-12T13:21:09;922.40;972.80
55026;DHT22;40925;45.666;18.994;2023-09-12T13:23:37;947.20;972.80
55026;DHT22;40925;45.666;18.994;2023-09-12T13:26:03;922.40;947.20
55026;DHT22;40925;45.666;18.994;2023-09-12T13:28:29;922.40;947.20
55026;DHT22;40925;45.666;18.994;2023-09-12T13:30:56;922.20;947.20
55026;DHT22;40925;45.666;18.994;2023-09-12T13:33:24;922.40;947.20
55026;DHT22;40925;45.666;18.994;2023-09-12T13:35:50;921.80;972.80
55026;DHT22;40925;45.666;18.994;2023-09-12T13:38:16;921.90;972.80
55026;DHT22;40925;45.666;18.994;2023-09-12T13:41:03;921.90;998.40
55026;DHT22;40925;45.666;18.994;2023-09-12T13:43:29;921.90;998.40
55026;DHT22;40925;45.666;18.994;2023-09-12T13:45:55;921.90;1024.00
55026;DHT22;40925;45.666;18.994;2023-09-12T13:48:21;921.80;1024.00
55026;DHT22;40925;45.666;18.994;2023-09-12T13:50:47;921.70;998.40
55026;DHT22;40925;45.666;18.994;2023-09-12T13:53:13;921.70;998.40
55026;DHT22;40925;45.666;18.994;2023-09-12T13:55:39;921.70;998.40
55026;DHT22;40925;45.666;18.994;2023-09-12T13:58:06;896.90;972.80
55026;DHT22;40925;45.666;18.994;2023-09-12T14:00:35;921.70;1024.00
55026;DHT22;40925;45.666;18.994;2023-09-12T14:03:01;922.20;1024.00
55026;DHT22;40925;45.666;18.994;2023-09-12T14:05:28;921.80;998.40
55026;DHT22;40925;45.666;18.994;2023-09-12T14:07:54;921.70;998.40
55026;DHT22;40925;45.666;18.994;2023-09-12T14:10:19;896.90;998.40
55026;DHT22;40925;45.666;18.994;2023-09-12T14:12:45;896.90;998.40
55026;DHT22;40925;45.666;18.994;2023-09-12T14:15:16;921.90;998.40
55026;DHT22;40925;45.666;18.994;2023-09-12T14:17:42;896.90;998.40
55026;DHT22;40925;45.666;18.994;2023-09-12T14:20:08;921.60;1024.00
55026;DHT22;40925;45.666;18.994;2023-09-12T14:22:35;921.60;1024.00
55026;DHT22;40925;45.666;18.994;2023-09-12T14:25:00;896.50;1024.00
55026;DHT22;40925;45.666;18.994;2023-09-12T14:27:26;896.50;1024.00
55026;DHT22;40925;45.666;18.994;2023-09-12T14:29:52;896.70;1049.60
55026;DHT22;40925;45.666;18.994;2023-09-12T14:32:17;896.70;1024.00
55026;DHT22;40925;45.666;18.994;2023-09-12T14:34:43;896.60;1024.00
55026;DHT22;40925;45.666;18.994;2023-09-12T14:37:11;896.50;1049.60
55026;DHT22;40925;45.666;18.994;2023-09-12T14:39:37;896.40;1024.00
55026;DHT22;40925;45.666;18.994;2023-09-12T14:42:03;896.40;1024.00
55026;DHT22;40925;45.666;18.994;2023-09-12T14:44:34;896.30;1024.00
55026;DHT22;40925;45.666;18.994;2023-09-12T14:47:00;896.30;1049.60
55026;DHT22;40925;45.666;18.994;2023-09-12T14:49:26;896.10;1049.60
55026;DHT22;40925;45.666;18.994;2023-09-12T14:51:52;871.20;1049.60
55026;DHT22;40925;45.666;18.994;2023-09-12T14:54:17;871.00;1075.20
55026;DHT22;40925;45.666;18.994;2023-09-12T14:56:43;871.20;1049.60
55026;DHT22;40925;45.666;18.994;2023-09-12T14:59:10;871.20;1075.20
55026;DHT22;40925;45.666;18.994;2023-09-12T15:01:37;871.00;1100.80
55026;DHT22;40925;45.666;18.994;2023-09-12T15:04:03;871.10;1126.40
55026;DHT22;40925;45.666;18.994;2023-09-12T15:06:28;871.20;1126.40
55026;DHT22;40925;45.666;18.994;2023-09-12T15:08:58;896.20;1075.20
55026;DHT22;40925;45.666;18.994;2023-09-12T15:11:24;896.00;1100.80
55026;DHT22;40925;45.666;18.994;2023-09-12T15:13:50;896.10;1075.20
55026;DHT22;40925;45.666;18.994;2023-09-12T15:16:15;896.00;1075.20
55026;DHT22;40925;45.666;18.994;2023-09-12T15:18:41;896.20;1100.80
55026;DHT22;40925;45.666;18.994;2023-09-12T15:21:08;896.40;1049.60
55026;DHT22;40925;45.666;18.994;2023-09-12T15:23:34;896.20;1049.60
55026;DHT22;40925;45.666;18.994;2023-09-12T15:26:00;896.20;1075.20
55026;DHT22;40925;45.666;18.994;2023-09-12T15:28:26;896.00;1100.80
55026;DHT22;40925;45.666;18.994;2023-09-12T15:30:52;896.10;1100.80
55026;DHT22;40925;45.666;18.994;2023-09-12T15:33:20;896.30;1049.60
55026;DHT22;40925;45.666;18.994;2023-09-12T15:35:48;896.00;1100.80
55026;DHT22;40925;45.666;18.994;2023-09-12T15:38:14;896.00;1075.20
55026;DHT22;40925;45.666;18.994;2023-09-12T15:40:40;896.10;1075.20
55026;DHT22;40925;45.666;18.994;2023-09-12T15:43:06;896.30;1075.20
55026;DHT22;40925;45.666;18.994;2023-09-12T15:45:32;896.20;1075.20
55026;DHT22;40925;45.666;18.994;2023-09-12T15:47:57;896.00;1075.20
55026;DHT22;40925;45.666;18.994;2023-09-12T15:50:23;870.70;1075.20
55026;DHT22;40925;45.666;18.994;2023-09-12T15:52:49;871.00;1126.40
55026;DHT22;40925;45.666;18.994;2023-09-12T15:55:15;871.10;1126.40
55026;DHT22;40925;45.666;18.994;2023-09-12T15:57:41;871.20;1126.40
55026;DHT22;40925;45.666;18.994;2023-09-12T16:00:08;871.10;1126.40
55026;DHT22;40925;45.666;18.994;2023-09-12T16:02:41;871.10;1126.40
55026;DHT22;40925;45.666;18.994;2023-09-12T16:05:10;870.90;1228.80
55026;DHT22;40925;45.666;18.994;2023-09-12T16:07:36;870.80;1177.60
55026;DHT22;40925;45.666;18.994;2023-09-12T16:10:03;870.90;1152.00
55026;DHT22;40925;45.666;18.994;2023-09-12T16:12:29;870.80;1152.00
55026;DHT22;40925;45.666;18.994;2023-09-12T16:14:55;870.70;1152.00
55026;DHT22;40925;45.666;18.994;2023-09-12T16:17:25;870.60;1126.40
55026;DHT22;40925;45.666;18.994;2023-09-12T16:19:52;870.50;1152.00
55026;DHT22;40925;45.666;18.994;2023-09-12T16:22:17;870.40;1152.00
55026;DHT22;40925;45.666;18.994;2023-09-12T16:24:43;845.60;1177.60
55026;DHT22;40925;45.666;18.994;2023-09-12T16:27:10;845.40;1177.60
55026;DHT22;40925;45.666;18.994;2023-09-12T16:29:36;845.20;1203.20
55026;DHT22;40925;45.666;18.994;2023-09-12T16:32:04;845.00;1228.80
55026;DHT22;40925;45.666;18.994;2023-09-12T16:34:30;844.80;1254.40
55026;DHT22;40925;45.666;18.994;2023-09-12T16:36:57;820.00;1254.40
55026;DHT22;40925;45.666;18.994;2023-09-12T16:39:22;820.00;1254.40
55026;DHT22;40925;45.666;18.994;2023-09-12T16:41:48;819.60;1254.40
55026;DHT22;40925;45.666;18.994;2023-09-12T16:44:15;819.40;1280.00
55026;DHT22;40925;45.666;18.994;2023-09-12T16:46:42;819.30;1305.60
55026;DHT22;40925;45.666;18.994;2023-09-12T16:49:07;819.20;1331.20
55026;DHT22;40925;45.666;18.994;2023-09-12T16:51:33;794.40;1382.40
55026;DHT22;40925;45.666;18.994;2023-09-12T16:53:59;794.10;1408.00
55026;DHT22;40925;45.666;18.994;2023-09-12T16:56:25;794.00;1484.80
55026;DHT22;40925;45.666;18.994;2023-09-12T16:58:51;793.90;1433.60
55026;DHT22;40925;45.666;18.994;2023-09-12T17:01:18;793.60;1536.00
55026;DHT22;40925;45.666;18.994;2023-09-12T17:03:44;768.80;1510.40
55026;DHT22;40925;45.666;18.994;2023-09-12T17:06:10;768.80;1510.40
55026;DHT22;40925;45.666;18.994;2023-09-12T17:08:36;768.70;1536.00
55026;DHT22;40925;45.666;18.994;2023-09-12T17:11:09;768.70;1536.00
55026;DHT22;40925;45.666;18.994;2023-09-12T17:13:34;768.70;1536.00
55026;DHT22;40925;45.666;18.994;2023-09-12T17:16:00;768.60;1587.20
55026;DHT22;40925;45.666;18.994;2023-09-12T17:18:27;768.60;1561.60
55026;DHT22;40925;45.666;18.994;2023-09-12T17:20:53;768.30;1587.20
55026;DHT22;40925;45.666;18.994;2023-09-12T17:23:18;743.30;1612.80
55026;DHT22;40925;45.666;18.994;2023-09-12T17:25:44;743.10;1612.80
55026;DHT22;40925;45.666;18.994;2023-09-12T17:28:10;743.00;1638.40
55026;DHT22;40925;45.666;18.994;2023-09-12T17:30:35;743.00;1638.40
55026;DHT22;40925;45.666;18.994;2023-09-12T17:33:01;742.70;1664.00
55026;DHT22;40925;45.666;18.994;2023-09-12T17:35:27;717.30;1817.60
55026;DHT22;40925;45.666;18.994;2023-09-12T17:37:53;717.00;1664.00
55026;DHT22;40925;45.666;18.994;2023-09-12T17:40:18;717.10;1612.80
55026;DHT22;40925;45.666;18.994;2023-09-12T17:42:44;717.20;1612.80
55026;DHT22;40925;45.666;18.994;2023-09-12T17:45:10;717.30;1612.80
55026;DHT22;40925;45.666;18.994;2023-09-12T17:47:36;717.20;1638.40
55026;DHT22;40925;45.666;18.994;2023-09-12T17:50:02;717.40;1638.40
55026;DHT22;40925;45.666;18.994;2023-09-12T17:52:29;717.40;1664.00
55026;DHT22;40925;45.666;18.994;2023-09-12T17:54:55;717.50;1664.00
55026;DHT22;40925;45.666;18.994;2023-09-12T17:57:21;717.40;1689.60
55026;DHT22;40925;45.666;18.994;2023-09-12T17:59:47;717.30;1715.20
55026;DHT22;40925;45.666;18.994;2023-09-12T18:02:14;717.10;1715.20
55026;DHT22;40925;45.666;18.994;2023-09-12T18:04:40;717.10;1689.60
55026;DHT22;40925;45.666;18.994;2023-09-12T18:07:05;717.10;1689.60
55026;DHT22;40925;45.666;18.994;2023-09-12T18:09:31;717.10;1689.60
55026;DHT22;40925;45.666;18.994;2023-09-12T18:11:57;717.10;1689.60
55026;DHT22;40925;45.666;18.994;2023-09-12T18:14:23;717.00;1740.80
55026;DHT22;40925;45.666;18.994;2023-09-12T18:16:49;716.80;1740.80
55026;DHT22;40925;45.666;18.994;2023-09-12T18:19:15;716.80;1740.80
55026;DHT22;40925;45.666;18.994;2023-09-12T18:21:41;692.10;1715.20
55026;DHT22;40925;45.666;18.994;2023-09-12T18:24:07;692.10;1740.80
55026;DHT22;40925;45.666;18.994;2023-09-12T18:26:32;692.00;1715.20